Columbus, Ohio
Traffic Map
Current Weather Conditions
Columbus, Ohio
Clear
Clear
17°
Feels Like: 17°
Wind Chill: 17° Ceiling: Unl
Heat Index: 17° Visibility: 10mi
Dew Point: 16° Wind: 3mph
Humidity: 90% Direction: 20° (NNE)
Pressure: 30.12in Gusts: 0mph
Raw Report DataKCMH 240851Z 02003KT 10SM CLR 17/16 A3012 RMK AO2 SLP193 T01720156 51006
Traffic Incident Summary
Active as of:
Severity:
Category:
InformationThere was an issue retrieving the traffic information for this location. Please try a different location or try again shortly.
Advertisements